In Rescue
 
Open Full Screen Window  High Contrast Mode
September 19, 2019 10:55 AM CDT
Weather Information
Wind Direction
  ---
Wind Speed
  00 kt (0 mph)
Wind Gust
  00 kt (0 mph)
Altimeter
29.99 in
Visibility
10 SM
Temperature
23° C
73° F
Dewpoint
14° C
57° F
Humidity
57%
1hr Rain Fall
00.00 in.
24hr Rain Fall
00.00 in.
Sky Condition
Clear
VFR

METAR KTWM 191555Z AUTO 00000KT 10SM CLR 23/14 A2999 RMK AO2

FAA Disclaimer: The data displayed is for advisory purposes only and is not to be used for flight planning or operations.